Time;durP1;ratioP1;P1;durP2;ratioP2;P2;SDS_P1;SDS_P2;PMS_P1;PMS_P2;Temp;Humidity;BMP_temperature;BMP_pressure;BME280_temperature;BME280_humidity;BME280_pressure;Samples;Min_cycle;Max_cycle;Signal;HPM_P1;HPM_P2
2021/01/07 00:00:12;;;;;;;16.97;12.10;;;3.60;99.90;;;;;;5148969;27;20440;-29
2021/01/07 00:02:43;;;;;;;14.90;12.07;;;3.60;99.90;;;;;;5149054;27;20451;-29
2021/01/07 00:05:09;;;;;;;15.10;12.30;;;3.60;99.90;;;;;;5147673;27;20433;-31
2021/01/07 00:07:36;;;;;;;19.40;14.03;;;3.60;99.90;;;;;;5147479;27;20429;-30
2021/01/07 00:10:04;;;;;;;16.40;12.87;;;3.60;99.90;;;;;;5146368;27;20463;-29
2021/01/07 00:12:31;;;;;;;14.63;11.47;;;3.50;99.90;;;;;;5145675;27;20461;-27
2021/01/07 00:14:57;;;;;;;13.33;11.93;;;3.50;99.90;;;;;;5146340;27;20936;-28
2021/01/07 00:17:24;;;;;;;17.07;11.80;;;3.40;99.90;;;;;;5147131;27;20501;-30
2021/01/07 00:19:52;;;;;;;15.60;11.60;;;3.30;99.90;;;;;;5147901;27;20440;-30
2021/01/07 00:22:19;;;;;;;13.60;11.73;;;3.30;99.90;;;;;;5145763;27;20437;-30
2021/01/07 00:24:45;;;;;;;13.90;11.10;;;3.30;99.90;;;;;;5146791;27;20472;-28
2021/01/07 00:27:12;;;;;;;12.53;10.47;;;3.30;99.90;;;;;;5147420;27;20441;-28
2021/01/07 00:29:39;;;;;;;13.90;11.60;;;3.30;99.90;;;;;;5146228;27;20444;-28
2021/01/07 00:32:06;;;;;;;14.17;10.63;;;3.20;99.90;;;;;;5147030;27;20744;-34
2021/01/07 00:34:33;;;;;;;15.13;11.20;;;3.20;99.90;;;;;;5148828;27;20452;-28
2021/01/07 00:37:00;;;;;;;11.50;10.30;;;3.20;99.90;;;;;;5148205;27;20436;-29
2021/01/07 00:39:27;;;;;;;12.80;10.70;;;3.10;99.90;;;;;;5148895;27;20484;-28
2021/01/07 00:41:55;;;;;;;13.47;9.90;;;3.10;99.90;;;;;;5147842;27;20433;-28
2021/01/07 00:44:22;;;;;;;13.27;10.67;;;3.20;99.90;;;;;;5128077;27;20710;-29
2021/01/07 00:46:50;;;;;;;13.80;11.23;;;3.20;99.90;;;;;;5147903;27;20498;-28
2021/01/07 00:49:17;;;;;;;13.57;11.60;;;3.30;99.90;;;;;;5147839;27;20472;-28
2021/01/07 00:51:44;;;;;;;12.20;10.63;;;3.30;99.90;;;;;;5130420;27;20469;-26
2021/01/07 00:54:12;;;;;;;11.90;10.70;;;3.30;99.90;;;;;;5129741;27;20705;-28
2021/01/07 00:56:39;;;;;;;11.13;10.00;;;3.30;99.90;;;;;;5127062;27;20456;-29
2021/01/07 00:59:08;;;;;;;12.23;10.37;;;3.40;99.90;;;;;;5129233;27;20735;-29
2021/01/07 01:01:43;;;;;;;10.93;9.43;;;3.30;99.90;;;;;;5146445;27;20750;-26
2021/01/07 01:04:10;;;;;;;12.33;11.03;;;3.40;99.90;;;;;;5146726;27;20796;-27
2021/01/07 01:06:36;;;;;;;11.30;10.13;;;3.40;99.90;;;;;;5146363;27;20433;-27
2021/01/07 01:09:04;;;;;;;11.20;9.77;;;3.40;99.90;;;;;;5146792;27;20551;-27
2021/01/07 01:11:37;;;;;;;12.90;9.47;;;3.40;99.90;;;;;;5146370;27;20475;-29
2021/01/07 01:14:06;;;;;;;10.60;9.53;;;3.30;99.90;;;;;;5147982;27;20447;-28
2021/01/07 01:16:32;;;;;;;9.37;8.37;;;3.30;99.90;;;;;;5147344;27;20847;-26
2021/01/07 01:19:01;;;;;;;12.43;9.60;;;3.30;99.90;;;;;;5146426;27;20502;-27
2021/01/07 01:21:27;;;;;;;11.83;9.57;;;3.40;99.90;;;;;;5145371;27;20708;-26
2021/01/07 01:23:54;;;;;;;13.83;10.33;;;3.40;99.90;;;;;;5146249;27;20452;-28
2021/01/07 01:26:20;;;;;;;11.13;9.53;;;3.40;99.90;;;;;;5146312;27;20441;-28
2021/01/07 01:28:48;;;;;;;11.67;10.47;;;3.40;99.90;;;;;;5146900;27;20433;-28
2021/01/07 01:31:14;;;;;;;10.47;9.43;;;3.40;99.90;;;;;;5145906;27;20533;-26
2021/01/07 01:33:41;;;;;;;11.40;10.20;;;3.40;99.90;;;;;;5145550;27;20616;-28
2021/01/07 01:36:08;;;;;;;11.77;9.67;;;3.40;99.90;;;;;;5149386;27;20433;-28
2021/01/07 01:38:35;;;;;;;11.00;9.90;;;3.50;99.90;;;;;;5150753;27;20548;-26
2021/01/07 01:41:02;;;;;;;11.60;10.40;;;3.50;99.90;;;;;;5149979;27;20731;-27
2021/01/07 01:43:29;;;;;;;14.23;10.00;;;3.50;99.90;;;;;;5150985;27;20540;-26
2021/01/07 01:45:57;;;;;;;12.30;10.70;;;3.50;99.90;;;;;;5148996;27;20433;-26
2021/01/07 01:48:26;;;;;;;13.10;11.00;;;3.50;99.90;;;;;;5150195;27;21045;-26
2021/01/07 01:50:53;;;;;;;11.43;10.33;;;3.60;99.90;;;;;;5148843;27;20900;-28
2021/01/07 01:53:21;;;;;;;10.77;9.47;;;3.60;99.90;;;;;;5150087;27;21044;-27
2021/01/07 01:55:49;;;;;;;11.33;10.23;;;3.50;99.90;;;;;;5150162;27;20724;-25
2021/01/07 01:58:16;;;;;;;11.63;9.53;;;3.50;99.90;;;;;;5149239;27;20472;-25
2021/01/07 02:00:42;;;;;;;13.67;9.23;;;3.50;99.90;;;;;;5150446;27;20429;-26
2021/01/07 02:03:11;;;;;;;11.83;10.53;;;3.50;99.90;;;;;;5150022;27;20764;-27
2021/01/07 02:05:39;;;;;;;10.20;9.20;;;3.50;99.90;;;;;;5150129;27;20448;-26
2021/01/07 02:08:08;;;;;;;12.27;11.00;;;3.50;99.90;;;;;;5150915;27;20433;-25
2021/01/07 02:10:35;;;;;;;12.23;10.57;;;3.60;99.90;;;;;;5151260;27;20489;-26
2021/01/07 02:13:03;;;;;;;15.30;12.67;;;3.60;99.90;;;;;;5149012;27;20444;-27
2021/01/07 02:15:30;;;;;;;16.07;11.00;;;3.60;99.90;;;;;;5150006;27;20800;-26
2021/01/07 02:17:57;;;;;;;13.30;11.23;;;3.60;99.90;;;;;;5151151;27;20586;-26
2021/01/07 02:20:25;;;;;;;13.80;10.73;;;3.60;99.90;;;;;;5149709;27;20737;-27
2021/01/07 02:22:52;;;;;;;12.33;11.03;;;3.60;99.90;;;;;;5149032;27;20582;-26
2021/01/07 02:25:19;;;;;;;13.80;11.70;;;3.60;99.90;;;;;;5148632;27;20504;-28
2021/01/07 02:27:46;;;;;;;11.30;10.13;;;3.60;99.90;;;;;;5148708;27;20690;-27
2021/01/07 02:30:13;;;;;;;14.60;12.77;;;3.50;99.90;;;;;;5149181;27;20928;-27
2021/01/07 02:32:40;;;;;;;12.37;10.77;;;3.60;99.90;;;;;;5149489;27;20461;-27
2021/01/07 02:35:08;;;;;;;14.20;11.33;;;3.60;99.90;;;;;;5150813;27;20425;-26
2021/01/07 02:37:36;;;;;;;16.10;10.40;;;3.60;99.90;;;;;;5130028;27;20464;-27
2021/01/07 02:40:04;;;;;;;12.60;10.50;;;3.60;99.90;;;;;;5149365;27;20583;-28
2021/01/07 02:42:32;;;;;;;14.10;11.40;;;3.60;99.90;;;;;;5149027;27;20436;-27
2021/01/07 02:44:59;;;;;;;13.03;10.70;;;3.50;99.90;;;;;;5149698;27;20869;-29
2021/01/07 02:47:26;;;;;;;15.73;11.90;;;3.50;99.90;;;;;;5150860;27;20485;-28
2021/01/07 02:49:52;;;;;;;12.80;11.17;;;3.40;99.90;;;;;;5150087;27;20470;-27
2021/01/07 02:52:19;;;;;;;12.77;11.20;;;3.40;99.90;;;;;;5148898;27;20614;-30
2021/01/07 02:54:46;;;;;;;13.20;11.03;;;3.40;99.90;;;;;;5148159;27;20487;-27
2021/01/07 02:57:13;;;;;;;15.30;12.37;;;3.50;99.90;;;;;;5150076;27;20883;-28
2021/01/07 02:59:40;;;;;;;14.23;11.90;;;3.50;99.90;;;;;;5130504;27;20448;-27
2021/01/07 03:02:06;;;;;;;14.37;12.10;;;3.50;99.90;;;;;;5149899;27;20421;-28
2021/01/07 03:04:33;;;;;;;15.57;13.47;;;3.50;99.90;;;;;;5150002;27;20429;-28
2021/01/07 03:07:00;;;;;;;15.57;13.00;;;3.50;99.90;;;;;;5150213;27;20723;-26
2021/01/07 03:09:26;;;;;;;18.57;11.97;;;3.60;99.90;;;;;;5149048;27;20615;-26
2021/01/07 03:11:53;;;;;;;15.57;12.50;;;3.60;99.90;;;;;;5148090;27;20492;-27
2021/01/07 03:14:20;;;;;;;15.00;12.27;;;3.60;99.90;;;;;;5148125;27;20616;-26
2021/01/07 03:16:47;;;;;;;15.80;13.30;;;3.70;99.90;;;;;;5150123;27;20745;-26
2021/01/07 03:19:14;;;;;;;14.40;11.60;;;3.60;99.90;;;;;;5150290;27;20490;-27
2021/01/07 03:21:42;;;;;;;14.10;11.83;;;3.60;99.90;;;;;;5151199;27;20436;-28
2021/01/07 03:24:09;;;;;;;15.87;11.60;;;3.60;99.90;;;;;;5149406;27;20467;-27
2021/01/07 03:26:36;;;;;;;16.40;11.90;;;3.60;99.90;;;;;;5147500;27;20433;-28
2021/01/07 03:29:04;;;;;;;14.20;11.20;;;3.60;99.90;;;;;;5149781;27;20569;-28
2021/01/07 03:31:31;;;;;;;12.60;10.60;;;3.50;99.90;;;;;;5149261;27;20667;-27
2021/01/07 03:33:58;;;;;;;13.30;11.77;;;3.50;99.90;;;;;;5148824;27;20441;-27
2021/01/07 03:36:24;;;;;;;16.53;12.17;;;3.50;99.90;;;;;;5148959;27;20627;-28
2021/01/07 03:38:51;;;;;;;15.60;12.10;;;3.50;99.90;;;;;;5147663;27;20706;-28
2021/01/07 03:41:17;;;;;;;12.23;11.00;;;3.60;99.90;;;;;;5148056;27;20441;-27
2021/01/07 03:43:44;;;;;;;13.37;9.83;;;3.60;99.90;;;;;;5148723;27;20467;-28
2021/01/07 03:46:11;;;;;;;15.50;11.70;;;3.60;99.90;;;;;;5146856;27;20436;-30
2021/01/07 03:48:38;;;;;;;18.50;12.37;;;3.60;99.90;;;;;;5146822;27;20680;-28
2021/01/07 03:51:05;;;;;;;15.50;11.50;;;3.60;99.90;;;;;;5147722;27;20469;-27
2021/01/07 03:53:31;;;;;;;13.83;11.47;;;3.50;99.90;;;;;;5147577;27;20513;-29
2021/01/07 03:55:58;;;;;;;15.47;11.47;;;3.40;99.90;;;;;;5147540;27;20445;-27
2021/01/07 03:58:25;;;;;;;15.37;12.03;;;3.30;99.90;;;;;;5147572;27;20433;-28
2021/01/07 04:00:51;;;;;;;13.77;10.97;;;3.40;99.90;;;;;;5147942;27;20548;-27
2021/01/07 04:03:19;;;;;;;16.67;12.13;;;3.40;99.90;;;;;;5147508;27;20441;-27
2021/01/07 04:05:45;;;;;;;15.57;11.50;;;3.40;99.90;;;;;;5146495;27;20437;-28
2021/01/07 04:08:12;;;;;;;13.90;11.33;;;3.30;99.90;;;;;;5147522;27;20480;-28
2021/01/07 04:10:39;;;;;;;13.73;11.27;;;3.30;99.90;;;;;;5147893;27;20441;-28
2021/01/07 04:13:05;;;;;;;15.40;12.33;;;3.30;99.90;;;;;;5146929;27;20429;-27
2021/01/07 04:15:32;;;;;;;12.77;11.03;;;3.40;99.90;;;;;;5146685;27;20465;-26
2021/01/07 04:17:58;;;;;;;15.97;12.97;;;3.40;99.90;;;;;;5147529;27;20429;-26
2021/01/07 04:20:26;;;;;;;14.77;12.73;;;3.30;99.90;;;;;;5146777;27;20928;-28
2021/01/07 04:22:52;;;;;;;12.87;11.47;;;3.40;99.90;;;;;;5144561;27;20434;-27
2021/01/07 04:25:19;;;;;;;15.00;10.70;;;3.40;99.90;;;;;;5146838;27;20915;-27
2021/01/07 04:27:46;;;;;;;15.93;11.40;;;3.30;99.90;;;;;;5145960;27;20429;-27
2021/01/07 04:30:14;;;;;;;14.00;12.00;;;3.40;99.90;;;;;;5145706;27;20437;-28
2021/01/07 04:32:40;;;;;;;14.40;11.27;;;3.40;99.90;;;;;;5145555;27;20484;-26
2021/01/07 04:35:08;;;;;;;11.47;10.27;;;3.50;99.90;;;;;;5148060;27;20564;-26
2021/01/07 04:37:35;;;;;;;14.20;11.90;;;3.50;99.90;;;;;;5147084;27;20633;-29
2021/01/07 04:40:04;;;;;;;12.83;10.80;;;3.50;99.90;;;;;;5144200;27;21094;-29
2021/01/07 04:42:31;;;;;;;14.53;11.93;;;3.40;99.90;;;;;;5145012;27;20494;-29
2021/01/07 04:45:00;;;;;;;15.33;11.70;;;3.50;99.90;;;;;;5146685;27;20425;-27
2021/01/07 04:47:26;;;;;;;14.97;11.33;;;3.50;99.90;;;;;;5145344;27;20438;-28
2021/01/07 04:49:53;;;;;;;11.37;10.20;;;3.50;99.90;;;;;;5143639;27;20440;-26
2021/01/07 04:52:20;;;;;;;11.63;10.27;;;3.50;99.90;;;;;;5142899;27;20453;-26
2021/01/07 04:54:48;;;;;;;11.30;10.10;;;3.40;99.90;;;;;;5142809;27;20711;-26
2021/01/07 04:57:14;;;;;;;12.50;10.37;;;3.40;99.90;;;;;;5143236;27;20437;-28
2021/01/07 04:59:41;;;;;;;11.43;9.93;;;3.30;99.90;;;;;;5143934;27;20501;-27
2021/01/07 05:02:09;;;;;;;13.30;10.67;;;3.30;99.90;;;;;;5142397;27;20441;-27
2021/01/07 05:04:47;;;;;;;11.00;9.67;;;3.30;99.90;;;;;;5142605;27;20421;-26
2021/01/07 05:07:16;;;;;;;11.20;10.10;;;3.20;99.90;;;;;;5141130;27;20505;-27
2021/01/07 05:09:43;;;;;;;11.83;10.60;;;3.20;99.90;;;;;;5145758;27;20814;-28
2021/01/07 05:12:11;;;;;;;11.43;10.20;;;3.30;99.90;;;;;;5147521;27;20468;-26
2021/01/07 05:14:44;;;;;;;10.60;9.50;;;3.30;99.90;;;;;;5146465;27;20467;-28
2021/01/07 05:17:13;;;;;;;12.13;10.50;;;3.30;99.90;;;;;;5146855;27;20750;-28
2021/01/07 05:19:39;;;;;;;13.53;10.97;;;3.40;99.90;;;;;;5145443;27;20429;-26
2021/01/07 05:22:06;;;;;;;11.73;9.80;;;3.30;99.90;;;;;;5144581;27;20425;-27
2021/01/07 05:24:33;;;;;;;13.00;10.20;;;3.30;99.90;;;;;;5144281;27;20736;-27
2021/01/07 05:27:05;;;;;;;11.37;10.20;;;3.30;99.90;;;;;;5143379;27;20440;-26
2021/01/07 05:29:33;;;;;;;13.30;10.77;;;3.30;99.90;;;;;;5145058;27;20452;-27
2021/01/07 05:32:00;;;;;;;15.27;11.67;;;3.30;99.90;;;;;;5146004;27;20635;-26
2021/01/07 05:34:27;;;;;;;11.93;10.40;;;3.30;99.90;;;;;;5142926;27;20517;-28
2021/01/07 05:36:57;;;;;;;13.57;11.37;;;3.30;99.90;;;;;;5141412;27;20522;-28
2021/01/07 05:39:24;;;;;;;16.43;10.80;;;3.40;99.90;;;;;;5122345;27;20678;-27
2021/01/07 05:41:54;;;;;;;13.20;11.33;;;3.40;99.90;;;;;;5144376;27;20425;-26
2021/01/07 05:44:23;;;;;;;14.60;12.13;;;3.30;99.90;;;;;;5140945;27;20684;-27
2021/01/07 05:46:50;;;;;;;40.77;21.27;;;3.40;99.90;;;;;;5136785;27;20845;-28
2021/01/07 05:49:20;;;;;;;14.90;11.70;;;3.40;99.90;;;;;;5139850;27;20618;-27
2021/01/07 05:51:48;;;;;;;12.23;10.57;;;3.40;99.90;;;;;;5139281;27;20751;-27
2021/01/07 05:54:15;;;;;;;17.20;12.10;;;3.40;99.90;;;;;;5138027;27;20456;-27
2021/01/07 05:56:44;;;;;;;14.33;11.30;;;3.40;99.90;;;;;;5138135;27;20437;-28
2021/01/07 05:59:11;;;;;;;52.43;30.30;;;3.40;99.90;;;;;;5141021;27;20528;-28
2021/01/07 06:01:42;;;;;;;13.57;11.20;;;3.40;99.90;;;;;;5141629;27;20850;-29
2021/01/07 06:04:11;;;;;;;16.13;14.47;;;3.40;99.90;;;;;;5138504;27;20493;-27
2021/01/07 06:06:39;;;;;;;14.63;12.57;;;3.40;99.90;;;;;;5135700;27;20437;-27
2021/01/07 06:09:06;;;;;;;13.47;11.77;;;3.40;99.90;;;;;;5130164;27;20861;-27
2021/01/07 06:11:35;;;;;;;12.00;10.77;;;3.40;99.90;;;;;;5137239;27;20476;-29
2021/01/07 06:14:03;;;;;;;14.90;12.40;;;3.50;99.90;;;;;;5135909;27;20595;-29
2021/01/07 06:16:30;;;;;;;15.33;12.90;;;3.50;99.90;;;;;;5133881;27;20646;-28
2021/01/07 06:19:31;;;;;;;13.30;11.53;;;3.40;99.90;;;;;;5131740;27;20731;-26
2021/01/07 06:21:59;;;;;;;14.57;11.90;;;3.30;99.90;;;;;;5128899;27;20428;-28
2021/01/07 06:24:27;;;;;;;15.43;11.00;;;3.40;99.90;;;;;;5135541;27;20445;-28
2021/01/07 06:26:53;;;;;;;13.90;10.90;;;3.30;99.90;;;;;;5136579;27;20491;-27
2021/01/07 06:29:20;;;;;;;15.27;10.90;;;3.30;99.90;;;;;;5132748;27;20476;-26
2021/01/07 06:31:56;;;;;;;14.47;10.77;;;3.30;99.90;;;;;;5130486;27;20657;-27
2021/01/07 06:34:26;;;;;;;12.80;10.23;;;3.30;99.90;;;;;;5124026;27;20649;-29
2021/01/07 06:36:54;;;;;;;11.77;10.10;;;3.30;99.90;;;;;;5108426;27;21208;-27
2021/01/07 06:39:22;;;;;;;13.53;11.57;;;3.30;99.90;;;;;;5111025;27;21194;-28
2021/01/07 06:41:57;;;;;;;15.40;10.50;;;3.30;99.90;;;;;;5116087;27;20473;-28
2021/01/07 06:44:25;;;;;;;14.70;11.33;;;3.30;99.90;;;;;;5109674;27;20424;-26
2021/01/07 06:46:52;;;;;;;18.67;12.40;;;3.30;99.90;;;;;;5111502;27;21050;-28
2021/01/07 06:49:20;;;;;;;10.63;9.17;;;3.40;99.90;;;;;;5130410;27;20441;-27
2021/01/07 06:51:51;;;;;;;13.10;11.80;;;3.40;99.90;;;;;;5116784;27;20943;-27
2021/01/07 06:54:19;;;;;;;17.67;15.20;;;3.50;99.90;;;;;;5126369;27;20928;-26
2021/01/07 06:56:47;;;;;;;19.77;17.63;;;3.50;99.90;;;;;;5128849;27;20980;-27
2021/01/07 06:59:14;;;;;;;20.20;18.20;;;3.50;99.90;;;;;;5125996;27;20465;-26
2021/01/07 07:01:48;;;;;;;14.50;12.40;;;3.50;99.90;;;;;;5119772;27;20550;-26
2021/01/07 07:04:27;;;;;;;14.07;11.43;;;3.50;99.90;;;;;;5121083;27;20469;-27
2021/01/07 07:07:03;;;;;;;12.40;9.67;;;3.50;99.90;;;;;;5122842;27;20433;-27
2021/01/07 07:09:40;;;;;;;16.97;11.30;;;3.40;99.90;;;;;;5113248;27;20811;-27
2021/01/07 07:12:07;;;;;;;19.73;13.57;;;3.40;99.90;;;;;;5116416;27;20469;-26
2021/01/07 07:14:34;;;;;;;38.60;23.80;;;3.40;99.90;;;;;;5115428;27;20444;-27
2021/01/07 07:17:09;;;;;;;22.90;17.13;;;3.40;99.90;;;;;;5114020;27;20505;-27
2021/01/07 07:19:38;;;;;;;14.23;12.27;;;3.30;99.90;;;;;;5114874;27;20600;-27
2021/01/07 07:22:06;;;;;;;32.30;27.10;;;3.30;99.90;;;;;;5120207;27;20610;-26
2021/01/07 07:24:34;;;;;;;14.53;12.03;;;3.30;99.90;;;;;;5114226;27;20689;-26
2021/01/07 07:27:09;;;;;;;15.00;10.70;;;3.30;99.90;;;;;;5117828;27;20826;-28
2021/01/07 07:29:38;;;;;;;17.13;13.90;;;3.30;99.90;;;;;;5115722;27;20428;-28
2021/01/07 07:32:21;;;;;;;19.70;15.70;;;3.30;99.90;;;;;;5098381;27;20870;-27
2021/01/07 07:34:49;;;;;;;13.63;11.67;;;3.40;99.90;;;;;;5106538;27;20667;-26
2021/01/07 07:37:20;;;;;;;14.20;12.23;;;3.40;99.90;;;;;;5117204;27;20994;-26
2021/01/07 07:39:49;;;;;;;13.60;10.60;;;3.50;99.90;;;;;;5124031;27;20487;-27
2021/01/07 07:42:17;;;;;;;14.50;11.60;;;3.40;99.90;;;;;;5111146;27;20481;-27
2021/01/07 07:44:48;;;;;;;14.50;11.57;;;3.40;99.90;;;;;;5120586;27;20674;-28
2021/01/07 07:47:15;;;;;;;13.57;11.03;;;3.50;99.90;;;;;;5115136;27;20797;-30
2021/01/07 07:49:43;;;;;;;16.60;11.50;;;3.50;99.90;;;;;;5101008;27;20553;-27
2021/01/07 07:52:10;;;;;;;14.30;12.90;;;3.50;99.90;;;;;;5108255;27;20479;-27
2021/01/07 07:54:37;;;;;;;16.30;12.10;;;3.50;99.90;;;;;;5111594;27;20457;-28
2021/01/07 07:57:05;;;;;;;14.10;11.07;;;3.60;99.90;;;;;;5120175;27;21123;-28
2021/01/07 07:59:34;;;;;;;12.33;11.03;;;3.60;99.90;;;;;;5109585;27;20456;-27
2021/01/07 08:02:02;;;;;;;16.10;12.53;;;3.60;99.90;;;;;;5107957;27;20484;-27
2021/01/07 08:04:30;;;;;;;14.37;11.10;;;3.60;99.90;;;;;;5119996;27;20527;-29
2021/01/07 08:07:08;;;;;;;19.37;17.17;;;3.60;99.90;;;;;;5098284;27;20454;-27
2021/01/07 08:09:36;;;;;;;16.63;14.83;;;3.60;99.90;;;;;;5089987;27;20441;-28
2021/01/07 08:12:07;;;;;;;26.53;24.03;;;3.50;99.90;;;;;;5097132;27;20467;-29
2021/01/07 08:14:40;;;;;;;16.50;14.10;;;3.50;99.90;;;;;;5093610;27;20449;-27
2021/01/07 08:17:08;;;;;;;18.87;16.97;;;3.60;99.90;;;;;;5105991;27;20859;-28
2021/01/07 08:19:36;;;;;;;19.67;16.50;;;3.60;99.90;;;;;;5105465;27;20451;-26
2021/01/07 08:22:04;;;;;;;15.67;11.40;;;3.70;99.90;;;;;;5102567;27;20450;-26
2021/01/07 08:24:31;;;;;;;15.93;13.63;;;3.70;99.90;;;;;;5122762;27;20518;-26
2021/01/07 08:27:13;;;;;;;14.57;11.90;;;3.70;99.90;;;;;;5113227;27;20631;-29
2021/01/07 08:29:46;;;;;;;14.40;12.50;;;3.70;99.90;;;;;;5110533;27;21107;-26
2021/01/07 08:32:18;;;;;;;21.20;17.63;;;3.80;99.90;;;;;;5114914;27;20480;-27
2021/01/07 08:34:46;;;;;;;18.50;16.70;;;3.80;99.90;;;;;;5118354;27;20455;-26
2021/01/07 08:37:16;;;;;;;17.77;15.80;;;3.80;99.90;;;;;;5101799;27;20499;-27
2021/01/07 08:39:43;;;;;;;14.87;11.47;;;3.80;99.90;;;;;;5091296;28;20481;-27
2021/01/07 08:42:10;;;;;;;14.90;11.53;;;3.80;99.90;;;;;;5096953;27;20449;-29
2021/01/07 08:44:38;;;;;;;16.00;12.47;;;3.80;99.90;;;;;;5112785;27;20441;-27
2021/01/07 08:47:20;;;;;;;16.30;12.87;;;3.90;99.90;;;;;;5116843;27;20473;-28
2021/01/07 08:49:47;;;;;;;15.43;13.00;;;3.90;99.90;;;;;;5098219;27;20442;-28
2021/01/07 08:52:14;;;;;;;16.30;12.60;;;4.00;99.90;;;;;;5121091;27;20484;-28
2021/01/07 08:54:52;;;;;;;14.03;12.17;;;4.00;99.90;;;;;;5107515;27;20823;-28
2021/01/07 08:57:19;;;;;;;14.20;10.43;;;4.10;99.90;;;;;;5121975;27;20472;-30
2021/01/07 08:59:48;;;;;;;15.97;11.70;;;4.20;99.90;;;;;;5111868;27;20445;-30
2021/01/07 09:02:20;;;;;;;14.93;13.23;;;4.10;99.90;;;;;;5099462;27;20452;-27
2021/01/07 09:04:50;;;;;;;19.50;14.73;;;4.10;99.90;;;;;;5094478;27;20693;-28
2021/01/07 09:07:20;;;;;;;19.37;15.87;;;4.10;99.90;;;;;;5113744;27;21024;-27
2021/01/07 09:09:52;;;;;;;24.70;19.80;;;4.10;99.90;;;;;;5102632;27;20430;-27
2021/01/07 09:12:21;;;;;;;17.30;13.77;;;4.20;99.90;;;;;;5099516;27;20472;-26
2021/01/07 09:14:50;;;;;;;14.93;12.33;;;4.20;99.90;;;;;;5097582;27;20453;-28
2021/01/07 09:17:19;;;;;;;18.30;13.10;;;4.20;99.90;;;;;;5098595;27;21231;-28
2021/01/07 09:19:49;;;;;;;13.80;12.20;;;4.10;99.90;;;;;;5094344;27;20443;-26
2021/01/07 09:22:21;;;;;;;18.90;12.60;;;4.20;99.90;;;;;;5084019;27;20470;-29
2021/01/07 09:24:50;;;;;;;15.60;11.27;;;4.30;99.90;;;;;;5097834;27;20438;-26
2021/01/07 09:27:20;;;;;;;15.73;13.27;;;4.30;99.90;;;;;;5095456;27;20434;-26
2021/01/07 09:29:49;;;;;;;13.50;11.30;;;4.20;99.90;;;;;;5092759;27;20438;-29
2021/01/07 09:32:16;;;;;;;14.43;12.93;;;4.20;99.90;;;;;;5096703;27;20485;-26
2021/01/07 09:34:46;;;;;;;15.60;11.60;;;4.20;99.90;;;;;;5095789;27;20434;-28
2021/01/07 09:37:16;;;;;;;17.60;12.87;;;4.20;99.90;;;;;;5099051;27;21336;-29
2021/01/07 09:39:44;;;;;;;16.13;12.33;;;4.30;99.90;;;;;;5097197;27;20465;-29
2021/01/07 09:42:12;;;;;;;14.43;11.87;;;4.30;99.90;;;;;;5094982;27;21382;-27
2021/01/07 09:44:39;;;;;;;19.70;13.90;;;4.30;99.90;;;;;;5097919;27;20437;-29
2021/01/07 09:47:10;;;;;;;14.00;11.53;;;4.30;99.90;;;;;;5099677;27;20434;-27
2021/01/07 09:49:39;;;;;;;15.67;13.20;;;4.30;99.90;;;;;;5096192;27;20704;-29
2021/01/07 09:52:08;;;;;;;15.13;12.80;;;4.30;99.90;;;;;;5096144;27;20526;-27
2021/01/07 09:54:37;;;;;;;17.27;13.40;;;4.20;99.90;;;;;;5096117;27;20434;-29
2021/01/07 09:57:06;;;;;;;13.90;11.47;;;4.10;99.90;;;;;;5091384;27;20524;-29
2021/01/07 09:59:35;;;;;;;17.30;13.60;;;4.20;99.90;;;;;;5081036;28;20438;-27
2021/01/07 10:02:04;;;;;;;19.23;13.10;;;4.20;99.90;;;;;;5081641;27;20541;-30
2021/01/07 10:04:32;;;;;;;15.90;12.07;;;4.20;99.90;;;;;;5098401;27;20442;-30
2021/01/07 10:07:00;;;;;;;23.77;19.20;;;4.30;99.90;;;;;;5091984;27;20447;-28
2021/01/07 10:09:28;;;;;;;21.10;16.73;;;4.40;99.90;;;;;;5098478;27;20549;-27
2021/01/07 10:11:56;;;;;;;15.13;13.40;;;4.50;99.90;;;;;;5096981;27;20466;-27
2021/01/07 10:14:26;;;;;;;18.33;16.37;;;4.60;99.90;;;;;;5095081;27;20469;-28
2021/01/07 10:16:55;;;;;;;18.60;16.30;;;4.60;99.90;;;;;;5097808;27;20582;-26
2021/01/07 10:19:23;;;;;;;15.23;12.40;;;4.60;99.90;;;;;;5099185;27;20560;-28
2021/01/07 10:21:56;;;;;;;24.80;21.13;;;4.60;99.90;;;;;;5100364;27;20503;-27
2021/01/07 10:24:23;;;;;;;17.50;13.40;;;4.60;99.90;;;;;;5094346;27;20472;-29
2021/01/07 10:26:56;;;;;;;19.17;14.63;;;4.60;99.90;;;;;;5093274;27;20542;-27
2021/01/07 10:29:27;;;;;;;16.47;13.83;;;4.60;99.90;;;;;;5076367;27;20561;-28
2021/01/07 10:31:58;;;;;;;19.40;13.63;;;4.60;99.90;;;;;;5075258;28;20507;-27
2021/01/07 10:34:27;;;;;;;17.13;13.47;;;4.70;99.90;;;;;;5096915;27;20506;-29
2021/01/07 10:36:55;;;;;;;19.37;14.60;;;4.80;99.90;;;;;;5100500;27;20763;-29
2021/01/07 10:39:25;;;;;;;21.37;14.33;;;4.90;99.90;;;;;;5095328;27;20533;-28
2021/01/07 10:41:57;;;;;;;17.67;13.47;;;4.90;99.90;;;;;;5103102;27;20475;-29
2021/01/07 10:44:26;;;;;;;16.90;13.37;;;4.80;99.90;;;;;;5098914;27;20481;-29
2021/01/07 10:49:53;;;;;;;16.13;12.87;;;4.60;99.90;;;;;;5094516;27;20925;-27
2021/01/07 10:52:43;;;;;;;17.80;13.70;;;4.50;99.90;;;;;;5094622;27;21042;-29
2021/01/07 10:55:20;;;;;;;16.93;13.03;;;4.60;99.90;;;;;;5092686;27;20879;-30
2021/01/07 10:58:42;;;;;;;19.20;14.30;;;4.60;99.90;;;;;;5083267;28;20439;-29
2021/01/07 11:01:48;;;;;;;18.23;13.53;;;4.60;99.90;;;;;;5097530;27;20484;-29
2021/01/07 11:04:48;;;;;;;17.63;13.30;;;4.50;99.90;;;;;;5080805;28;20454;-28
2021/01/07 11:07:25;;;;;;;19.67;14.00;;;4.60;99.90;;;;;;4996614;28;21233;-27
2021/01/07 11:09:59;;;;;;;20.43;14.00;;;4.80;99.90;;;;;;5093119;27;20461;-28
2021/01/07 11:12:31;;;;;;;18.63;13.30;;;5.00;99.90;;;;;;5087709;27;20469;-27
2021/01/07 11:15:03;;;;;;;17.50;14.40;;;5.10;99.90;;;;;;5100626;27;20537;-28
2021/01/07 11:17:34;;;;;;;18.97;14.90;;;5.10;99.90;;;;;;5075796;28;21181;-29
2021/01/07 11:20:09;;;;;;;18.27;16.37;;;5.10;99.90;;;;;;5090653;27;20458;-31
2021/01/07 11:22:38;;;;;;;17.17;13.40;;;5.10;99.90;;;;;;5097700;27;20505;-26
2021/01/07 11:25:07;;;;;;;21.67;15.60;;;5.00;99.90;;;;;;5095853;27;20469;-31
2021/01/07 11:27:35;;;;;;;19.83;15.37;;;4.90;99.90;;;;;;5099472;27;20492;-28
2021/01/07 11:30:05;;;;;;;20.10;16.27;;;4.90;99.90;;;;;;5106956;27;21170;-28
2021/01/07 11:32:37;;;;;;;18.70;16.33;;;4.80;99.90;;;;;;5097920;27;20462;-29
2021/01/07 11:35:26;;;;;;;20.97;14.40;;;4.90;99.90;;;;;;5102825;27;20459;-28
2021/01/07 11:37:57;;;;;;;21.63;16.63;;;4.90;99.90;;;;;;5095288;27;20753;-29
2021/01/07 11:40:28;;;;;;;21.77;15.37;;;5.10;99.90;;;;;;5097409;27;20437;-29
2021/01/07 11:43:34;;;;;;;21.10;16.03;;;5.20;99.90;;;;;;5098528;27;20520;-28
2021/01/07 11:46:03;;;;;;;17.77;14.20;;;5.20;99.90;;;;;;5112673;27;20503;-27
2021/01/07 11:48:32;;;;;;;21.33;17.20;;;5.20;99.90;;;;;;5121634;27;20433;-30
2021/01/07 11:51:03;;;;;;;20.37;15.57;;;5.30;99.90;;;;;;5123042;27;21082;-29
2021/01/07 11:53:30;;;;;;;20.53;15.23;;;5.30;99.90;;;;;;5121029;27;20469;-27
2021/01/07 11:55:58;;;;;;;22.40;16.47;;;5.30;99.90;;;;;;5114574;27;20482;-27
2021/01/07 11:58:27;;;;;;;19.93;14.27;;;5.40;99.90;;;;;;5099539;27;20485;-30
2021/01/07 12:00:56;;;;;;;19.77;15.97;;;5.50;99.90;;;;;;5120933;27;20854;-28
2021/01/07 12:03:28;;;;;;;19.57;14.90;;;5.60;99.90;;;;;;5117996;27;20457;-30
2021/01/07 12:05:59;;;;;;;17.83;13.97;;;5.70;99.90;;;;;;5101521;27;20715;-27
2021/01/07 12:08:44;;;;;;;22.17;15.37;;;5.80;99.90;;;;;;5100769;27;20442;-27
2021/01/07 12:11:17;;;;;;;18.70;14.70;;;6.00;99.90;;;;;;5102827;27;20811;-28
2021/01/07 12:13:52;;;;;;;15.10;12.10;;;6.00;99.90;;;;;;5109490;27;20485;-28
2021/01/07 12:16:24;;;;;;;19.90;14.00;;;6.00;99.90;;;;;;5112484;27;20477;-28
2021/01/07 12:18:51;;;;;;;20.60;16.33;;;6.00;99.90;;;;;;5102177;27;20839;-27
2021/01/07 12:21:20;;;;;;;16.33;13.00;;;6.00;99.90;;;;;;5123992;27;20452;-28
2021/01/07 12:23:47;;;;;;;16.27;13.77;;;6.10;99.90;;;;;;5123893;27;20528;-27
2021/01/07 12:26:14;;;;;;;22.40;15.07;;;6.10;99.90;;;;;;5096802;27;20452;-27
2021/01/07 12:28:44;;;;;;;17.97;15.23;;;6.20;99.90;;;;;;5123011;27;20491;-28
2021/01/07 12:31:16;;;;;;;16.97;13.80;;;6.30;99.90;;;;;;5111612;27;20442;-28
2021/01/07 12:34:08;;;;;;;15.63;13.57;;;6.30;99.90;;;;;;5100743;28;21273;-27
2021/01/07 12:36:44;;;;;;;16.67;14.17;;;6.20;99.90;;;;;;5103132;27;21146;-27
2021/01/07 12:39:22;;;;;;;17.40;15.30;;;6.20;99.90;;;;;;5111470;27;20500;-30
2021/01/07 12:41:52;;;;;;;17.00;14.43;;;6.10;99.90;;;;;;5111860;27;21366;-28
2021/01/07 12:44:21;;;;;;;16.77;13.63;;;6.10;99.90;;;;;;5116529;27;21083;-28
2021/01/07 12:46:52;;;;;;;14.93;13.43;;;6.00;99.90;;;;;;5118151;27;20796;-27
2021/01/07 12:49:19;;;;;;;14.50;13.00;;;5.90;99.90;;;;;;5085702;27;20456;-28
2021/01/07 12:51:50;;;;;;;16.27;13.07;;;5.80;99.90;;;;;;5119837;27;20441;-29